Terminal Aerodrome Forecast
Issued by NWS Tulsa, OK

Current Version | Previous Version | Text Only | Print | Product List | Glossary On
Versions: 1 2 3 4 5 6 7 8 9 10 11 12 13 14 15 16 17 18 19 20 21 22 23 24 25 26 27 28 29 30 31 32 33 34 35 36 37
000
FTPQ31 PGUM 212300
TAFPQ
TAF

PTSA 212320Z 2200/2224 17010KT P6SM VCSH BKN012 OVC300
     FM220200 17010KT P6SM SCT012 OVC300
      TEMPO 2202/2204 BKN012 BKN300=

USA.gov is the U.S. government's official web portal to all federal, state and local government web resources and services.